sensor_id;sensor_type;location;lat;lon;timestamp;temperature;humidity
34536;DHT22;20779;55.596;37.538;2022-07-05T00:00:56;21.30;99.90
34536;DHT22;20779;55.596;37.538;2022-07-05T00:03:22;21.20;99.90
34536;DHT22;20779;55.596;37.538;2022-07-05T00:05:49;21.10;99.90
34536;DHT22;20779;55.596;37.538;2022-07-05T00:08:15;21.10;99.90
34536;DHT22;20779;55.596;37.538;2022-07-05T00:10:41;21.10;99.90
34536;DHT22;20779;55.596;37.538;2022-07-05T00:13:08;21.00;99.90
34536;DHT22;20779;55.596;37.538;2022-07-05T00:15:35;21.00;99.90
34536;DHT22;20779;55.596;37.538;2022-07-05T00:18:01;21.00;99.90
34536;DHT22;20779;55.596;37.538;2022-07-05T00:20:28;21.00;99.90
34536;DHT22;20779;55.596;37.538;2022-07-05T00:22:54;21.00;99.90
34536;DHT22;20779;55.596;37.538;2022-07-05T00:25:20;20.90;99.90
34536;DHT22;20779;55.596;37.538;2022-07-05T00:27:46;20.80;99.90
34536;DHT22;20779;55.596;37.538;2022-07-05T00:30:13;20.70;99.90
34536;DHT22;20779;55.596;37.538;2022-07-05T00:32:40;20.80;99.90
34536;DHT22;20779;55.596;37.538;2022-07-05T00:35:07;20.80;99.90
34536;DHT22;20779;55.596;37.538;2022-07-05T00:37:34;20.90;99.90
34536;DHT22;20779;55.596;37.538;2022-07-05T00:40:01;20.90;99.90
34536;DHT22;20779;55.596;37.538;2022-07-05T00:42:29;20.90;99.90
34536;DHT22;20779;55.596;37.538;2022-07-05T00:44:55;20.90;99.90
34536;DHT22;20779;55.596;37.538;2022-07-05T00:47:21;20.90;99.90
34536;DHT22;20779;55.596;37.538;2022-07-05T00:49:48;20.80;99.90
34536;DHT22;20779;55.596;37.538;2022-07-05T00:52:15;20.90;99.90
34536;DHT22;20779;55.596;37.538;2022-07-05T00:54:42;20.80;99.90
34536;DHT22;20779;55.596;37.538;2022-07-05T00:57:08;20.80;99.90
34536;DHT22;20779;55.596;37.538;2022-07-05T00:59:34;20.70;99.90
34536;DHT22;20779;55.596;37.538;2022-07-05T01:02:01;20.70;99.90
34536;DHT22;20779;55.596;37.538;2022-07-05T01:04:27;20.70;99.90
34536;DHT22;20779;55.596;37.538;2022-07-05T01:06:54;20.60;99.90
34536;DHT22;20779;55.596;37.538;2022-07-05T01:09:22;20.60;99.90
34536;DHT22;20779;55.596;37.538;2022-07-05T01:11:50;20.50;99.90
34536;DHT22;20779;55.596;37.538;2022-07-05T01:14:19;20.50;99.90
34536;DHT22;20779;55.596;37.538;2022-07-05T01:16:46;20.50;99.90
34536;DHT22;20779;55.596;37.538;2022-07-05T01:19:13;20.60;99.90
34536;DHT22;20779;55.596;37.538;2022-07-05T01:21:41;20.60;99.90
34536;DHT22;20779;55.596;37.538;2022-07-05T01:24:10;20.70;99.90
34536;DHT22;20779;55.596;37.538;2022-07-05T01:26:38;20.80;99.90
34536;DHT22;20779;55.596;37.538;2022-07-05T01:29:06;20.80;99.90
34536;DHT22;20779;55.596;37.538;2022-07-05T01:31:36;20.90;99.90
34536;DHT22;20779;55.596;37.538;2022-07-05T01:34:02;20.90;99.90
34536;DHT22;20779;55.596;37.538;2022-07-05T01:36:29;20.90;99.90
34536;DHT22;20779;55.596;37.538;2022-07-05T01:38:55;21.00;99.90
34536;DHT22;20779;55.596;37.538;2022-07-05T01:41:22;21.00;99.90
34536;DHT22;20779;55.596;37.538;2022-07-05T01:43:48;21.00;99.90
34536;DHT22;20779;55.596;37.538;2022-07-05T01:46:15;21.00;99.90
34536;DHT22;20779;55.596;37.538;2022-07-05T01:48:44;21.00;99.90
34536;DHT22;20779;55.596;37.538;2022-07-05T01:51:24;21.00;99.90
34536;DHT22;20779;55.596;37.538;2022-07-05T01:53:54;21.10;99.90
34536;DHT22;20779;55.596;37.538;2022-07-05T01:56:20;21.10;99.90
34536;DHT22;20779;55.596;37.538;2022-07-05T01:58:47;21.10;99.90
34536;DHT22;20779;55.596;37.538;2022-07-05T02:01:14;21.20;99.90
34536;DHT22;20779;55.596;37.538;2022-07-05T02:03:40;21.50;99.90
34536;DHT22;20779;55.596;37.538;2022-07-05T02:06:08;22.00;99.90
34536;DHT22;20779;55.596;37.538;2022-07-05T02:08:36;22.50;99.90
34536;DHT22;20779;55.596;37.538;2022-07-05T02:11:03;23.10;99.90
34536;DHT22;20779;55.596;37.538;2022-07-05T02:13:30;23.60;99.90
34536;DHT22;20779;55.596;37.538;2022-07-05T02:15:57;24.00;99.90
34536;DHT22;20779;55.596;37.538;2022-07-05T02:18:24;24.40;99.90
34536;DHT22;20779;55.596;37.538;2022-07-05T02:20:53;24.60;99.90
34536;DHT22;20779;55.596;37.538;2022-07-05T02:23:19;24.90;99.90
34536;DHT22;20779;55.596;37.538;2022-07-05T02:25:45;25.20;99.90
34536;DHT22;20779;55.596;37.538;2022-07-05T02:28:15;25.60;99.90
34536;DHT22;20779;55.596;37.538;2022-07-05T02:30:44;26.10;99.90
34536;DHT22;20779;55.596;37.538;2022-07-05T02:33:10;26.60;99.90
34536;DHT22;20779;55.596;37.538;2022-07-05T02:35:36;27.00;99.80
34536;DHT22;20779;55.596;37.538;2022-07-05T02:38:03;27.10;98.80
34536;DHT22;20779;55.596;37.538;2022-07-05T02:40:29;27.40;98.80
34536;DHT22;20779;55.596;37.538;2022-07-05T02:42:56;27.40;98.00
34536;DHT22;20779;55.596;37.538;2022-07-05T02:45:24;27.50;97.20
34536;DHT22;20779;55.596;37.538;2022-07-05T02:47:57;27.80;96.90
34536;DHT22;20779;55.596;37.538;2022-07-05T02:50:25;27.90;96.30
34536;DHT22;20779;55.596;37.538;2022-07-05T02:52:52;28.10;95.80
34536;DHT22;20779;55.596;37.538;2022-07-05T02:55:18;28.50;95.80
34536;DHT22;20779;55.596;37.538;2022-07-05T02:57:45;28.90;94.30
34536;DHT22;20779;55.596;37.538;2022-07-05T03:00:14;28.70;94.60
34536;DHT22;20779;55.596;37.538;2022-07-05T03:02:44;28.90;95.00
34536;DHT22;20779;55.596;37.538;2022-07-05T03:05:11;29.00;95.00
34536;DHT22;20779;55.596;37.538;2022-07-05T03:07:41;29.30;94.90
34536;DHT22;20779;55.596;37.538;2022-07-05T03:10:07;29.40;94.80
34536;DHT22;20779;55.596;37.538;2022-07-05T03:12:35;29.40;94.50
34536;DHT22;20779;55.596;37.538;2022-07-05T03:15:02;29.50;94.30
34536;DHT22;20779;55.596;37.538;2022-07-05T03:17:29;29.60;94.10
34536;DHT22;20779;55.596;37.538;2022-07-05T03:19:55;30.00;93.30
34536;DHT22;20779;55.596;37.538;2022-07-05T03:22:23;30.10;93.10
34536;DHT22;20779;55.596;37.538;2022-07-05T03:24:49;30.20;92.70
34536;DHT22;20779;55.596;37.538;2022-07-05T03:27:16;30.30;92.10
34536;DHT22;20779;55.596;37.538;2022-07-05T03:29:45;29.90;91.80
34536;DHT22;20779;55.596;37.538;2022-07-05T03:32:11;29.90;92.10
34536;DHT22;20779;55.596;37.538;2022-07-05T03:34:39;29.70;92.10
34536;DHT22;20779;55.596;37.538;2022-07-05T03:37:07;29.90;92.00
34536;DHT22;20779;55.596;37.538;2022-07-05T03:39:33;30.00;91.50
34536;DHT22;20779;55.596;37.538;2022-07-05T03:42:00;30.00;91.00
34536;DHT22;20779;55.596;37.538;2022-07-05T03:44:29;29.90;91.20
34536;DHT22;20779;55.596;37.538;2022-07-05T03:46:59;29.70;91.30
34536;DHT22;20779;55.596;37.538;2022-07-05T03:49:26;29.50;91.30
34536;DHT22;20779;55.596;37.538;2022-07-05T03:51:53;29.40;91.40
34536;DHT22;20779;55.596;37.538;2022-07-05T03:54:20;29.50;91.60
34536;DHT22;20779;55.596;37.538;2022-07-05T03:56:46;29.30;91.20
34536;DHT22;20779;55.596;37.538;2022-07-05T03:59:15;29.60;90.70
34536;DHT22;20779;55.596;37.538;2022-07-05T04:01:42;29.70;90.60
34536;DHT22;20779;55.596;37.538;2022-07-05T04:04:10;29.80;89.80
34536;DHT22;20779;55.596;37.538;2022-07-05T04:06:36;29.90;88.50
34536;DHT22;20779;55.596;37.538;2022-07-05T04:09:03;29.70;88.80
34536;DHT22;20779;55.596;37.538;2022-07-05T04:11:30;29.90;88.20
34536;DHT22;20779;55.596;37.538;2022-07-05T04:13:57;30.10;87.70
34536;DHT22;20779;55.596;37.538;2022-07-05T04:16:23;30.10;87.50
34536;DHT22;20779;55.596;37.538;2022-07-05T04:18:49;30.10;87.50
34536;DHT22;20779;55.596;37.538;2022-07-05T04:21:15;30.10;86.90
34536;DHT22;20779;55.596;37.538;2022-07-05T04:23:42;30.00;86.80
34536;DHT22;20779;55.596;37.538;2022-07-05T04:26:10;30.10;87.40
34536;DHT22;20779;55.596;37.538;2022-07-05T04:28:41;30.20;86.80
34536;DHT22;20779;55.596;37.538;2022-07-05T04:31:10;30.00;86.80
34536;DHT22;20779;55.596;37.538;2022-07-05T04:33:41;29.70;88.00
34536;DHT22;20779;55.596;37.538;2022-07-05T04:36:09;29.30;89.50
34536;DHT22;20779;55.596;37.538;2022-07-05T04:38:35;28.60;90.80
34536;DHT22;20779;55.596;37.538;2022-07-05T04:41:03;27.90;91.90
34536;DHT22;20779;55.596;37.538;2022-07-05T04:43:32;27.20;93.90
34536;DHT22;20779;55.596;37.538;2022-07-05T04:46:00;27.30;95.10
34536;DHT22;20779;55.596;37.538;2022-07-05T04:48:26;27.70;94.80
34536;DHT22;20779;55.596;37.538;2022-07-05T04:50:53;28.10;94.30
34536;DHT22;20779;55.596;37.538;2022-07-05T04:53:21;28.60;93.10
34536;DHT22;20779;55.596;37.538;2022-07-05T04:55:47;29.00;92.30
34536;DHT22;20779;55.596;37.538;2022-07-05T04:58:13;29.00;91.80
34536;DHT22;20779;55.596;37.538;2022-07-05T05:00:39;28.90;91.50
34536;DHT22;20779;55.596;37.538;2022-07-05T05:03:05;29.20;91.70
34536;DHT22;20779;55.596;37.538;2022-07-05T05:05:31;29.40;91.30
34536;DHT22;20779;55.596;37.538;2022-07-05T05:07:57;29.60;90.70
34536;DHT22;20779;55.596;37.538;2022-07-05T05:10:24;29.80;90.30
34536;DHT22;20779;55.596;37.538;2022-07-05T05:12:50;30.20;90.30
34536;DHT22;20779;55.596;37.538;2022-07-05T05:15:16;30.50;89.80
34536;DHT22;20779;55.596;37.538;2022-07-05T05:17:43;30.80;88.80
34536;DHT22;20779;55.596;37.538;2022-07-05T05:20:16;30.70;87.80
34536;DHT22;20779;55.596;37.538;2022-07-05T05:22:43;30.80;86.40
34536;DHT22;20779;55.596;37.538;2022-07-05T05:25:10;31.00;86.50
34536;DHT22;20779;55.596;37.538;2022-07-05T05:27:44;31.20;85.40
34536;DHT22;20779;55.596;37.538;2022-07-05T05:30:13;31.10;85.30
34536;DHT22;20779;55.596;37.538;2022-07-05T05:32:40;31.30;85.20
34536;DHT22;20779;55.596;37.538;2022-07-05T05:35:07;31.30;84.10
34536;DHT22;20779;55.596;37.538;2022-07-05T05:37:57;31.10;84.00
34536;DHT22;20779;55.596;37.538;2022-07-05T05:40:24;30.90;84.70
34536;DHT22;20779;55.596;37.538;2022-07-05T05:42:52;30.70;84.50
34536;DHT22;20779;55.596;37.538;2022-07-05T05:45:19;30.70;85.00
34536;DHT22;20779;55.596;37.538;2022-07-05T05:47:55;30.90;85.70
34536;DHT22;20779;55.596;37.538;2022-07-05T05:50:35;31.30;85.30
34536;DHT22;20779;55.596;37.538;2022-07-05T05:53:02;31.40;84.10
34536;DHT22;20779;55.596;37.538;2022-07-05T05:55:30;31.40;83.60
34536;DHT22;20779;55.596;37.538;2022-07-05T05:57:56;31.60;83.80
34536;DHT22;20779;55.596;37.538;2022-07-05T06:00:24;32.00;83.40
34536;DHT22;20779;55.596;37.538;2022-07-05T06:02:51;32.10;82.60
34536;DHT22;20779;55.596;37.538;2022-07-05T06:05:18;32.20;82.20
34536;DHT22;20779;55.596;37.538;2022-07-05T06:07:49;32.50;81.70
34536;DHT22;20779;55.596;37.538;2022-07-05T06:10:29;32.60;82.30
34536;DHT22;20779;55.596;37.538;2022-07-05T06:12:57;32.50;81.00
34536;DHT22;20779;55.596;37.538;2022-07-05T06:15:24;32.40;81.40
34536;DHT22;20779;55.596;37.538;2022-07-05T06:17:51;32.30;82.00
34536;DHT22;20779;55.596;37.538;2022-07-05T06:20:20;32.10;82.70
34536;DHT22;20779;55.596;37.538;2022-07-05T06:22:48;32.40;83.10
34536;DHT22;20779;55.596;37.538;2022-07-05T06:25:15;32.30;81.60
34536;DHT22;20779;55.596;37.538;2022-07-05T06:27:52;32.10;80.70
34536;DHT22;20779;55.596;37.538;2022-07-05T06:30:24;31.70;82.00
34536;DHT22;20779;55.596;37.538;2022-07-05T06:32:51;31.00;84.60
34536;DHT22;20779;55.596;37.538;2022-07-05T06:35:19;30.60;85.70
34536;DHT22;20779;55.596;37.538;2022-07-05T06:40:17;30.30;86.90
34536;DHT22;20779;55.596;37.538;2022-07-05T06:42:47;30.10;86.40
34536;DHT22;20779;55.596;37.538;2022-07-05T06:45:15;29.70;87.60
34536;DHT22;20779;55.596;37.538;2022-07-05T06:47:41;29.50;86.70
34536;DHT22;20779;55.596;37.538;2022-07-05T06:50:08;29.50;87.10
34536;DHT22;20779;55.596;37.538;2022-07-05T06:52:36;29.40;87.80
34536;DHT22;20779;55.596;37.538;2022-07-05T06:55:03;29.50;88.20
34536;DHT22;20779;55.596;37.538;2022-07-05T06:57:30;29.60;88.40
34536;DHT22;20779;55.596;37.538;2022-07-05T06:59:56;29.90;88.40
34536;DHT22;20779;55.596;37.538;2022-07-05T07:02:22;29.60;87.30
34536;DHT22;20779;55.596;37.538;2022-07-05T07:04:49;29.50;89.10
34536;DHT22;20779;55.596;37.538;2022-07-05T07:07:15;29.40;90.10
34536;DHT22;20779;55.596;37.538;2022-07-05T07:10:02;29.40;90.10
34536;DHT22;20779;55.596;37.538;2022-07-05T07:12:29;29.40;88.60
34536;DHT22;20779;55.596;37.538;2022-07-05T07:14:56;29.30;88.40
34536;DHT22;20779;55.596;37.538;2022-07-05T07:17:23;29.40;88.40
34536;DHT22;20779;55.596;37.538;2022-07-05T07:19:50;29.40;89.80
34536;DHT22;20779;55.596;37.538;2022-07-05T07:22:17;29.50;88.60
34536;DHT22;20779;55.596;37.538;2022-07-05T07:24:43;29.40;87.80
34536;DHT22;20779;55.596;37.538;2022-07-05T07:27:09;29.50;86.70
34536;DHT22;20779;55.596;37.538;2022-07-05T07:29:37;29.50;83.50
34536;DHT22;20779;55.596;37.538;2022-07-05T07:32:05;29.20;86.50
34536;DHT22;20779;55.596;37.538;2022-07-05T07:34:32;29.40;86.20
34536;DHT22;20779;55.596;37.538;2022-07-05T07:36:59;29.70;87.40
34536;DHT22;20779;55.596;37.538;2022-07-05T07:39:26;29.80;85.70
34536;DHT22;20779;55.596;37.538;2022-07-05T07:41:53;29.70;84.70
34536;DHT22;20779;55.596;37.538;2022-07-05T07:44:19;29.60;84.00
34536;DHT22;20779;55.596;37.538;2022-07-05T07:46:46;29.70;84.90
34536;DHT22;20779;55.596;37.538;2022-07-05T07:49:12;29.90;84.90
34536;DHT22;20779;55.596;37.538;2022-07-05T07:51:39;30.00;83.50
34536;DHT22;20779;55.596;37.538;2022-07-05T07:54:06;29.80;84.20
34536;DHT22;20779;55.596;37.538;2022-07-05T07:56:32;29.70;82.70
34536;DHT22;20779;55.596;37.538;2022-07-05T07:58:59;29.60;83.00
34536;DHT22;20779;55.596;37.538;2022-07-05T08:01:25;29.70;84.10
34536;DHT22;20779;55.596;37.538;2022-07-05T08:03:51;29.70;83.80
34536;DHT22;20779;55.596;37.538;2022-07-05T08:06:18;29.50;82.70
34536;DHT22;20779;55.596;37.538;2022-07-05T08:08:44;29.50;82.30
34536;DHT22;20779;55.596;37.538;2022-07-05T08:11:12;29.70;82.20
34536;DHT22;20779;55.596;37.538;2022-07-05T08:13:39;29.90;84.00
34536;DHT22;20779;55.596;37.538;2022-07-05T08:16:07;30.00;85.30
34536;DHT22;20779;55.596;37.538;2022-07-05T08:18:33;30.00;85.30
34536;DHT22;20779;55.596;37.538;2022-07-05T08:21:18;30.10;84.50
34536;DHT22;20779;55.596;37.538;2022-07-05T08:24:02;30.10;84.40
34536;DHT22;20779;55.596;37.538;2022-07-05T08:26:30;30.20;86.10
34536;DHT22;20779;55.596;37.538;2022-07-05T08:28:58;30.30;85.30
34536;DHT22;20779;55.596;37.538;2022-07-05T08:31:27;30.40;84.70
34536;DHT22;20779;55.596;37.538;2022-07-05T08:33:54;30.50;84.00
34536;DHT22;20779;55.596;37.538;2022-07-05T08:36:20;30.80;82.70
34536;DHT22;20779;55.596;37.538;2022-07-05T08:38:47;30.80;81.20
34536;DHT22;20779;55.596;37.538;2022-07-05T08:41:17;30.80;80.30
34536;DHT22;20779;55.596;37.538;2022-07-05T08:43:45;30.90;79.70
34536;DHT22;20779;55.596;37.538;2022-07-05T08:46:13;31.00;79.20
34536;DHT22;20779;55.596;37.538;2022-07-05T08:48:41;31.10;80.20
34536;DHT22;20779;55.596;37.538;2022-07-05T08:53:41;31.30;81.30
34536;DHT22;20779;55.596;37.538;2022-07-05T08:56:08;31.20;81.40
34536;DHT22;20779;55.596;37.538;2022-07-05T08:58:36;31.20;80.00
34536;DHT22;20779;55.596;37.538;2022-07-05T09:01:03;31.30;79.90
34536;DHT22;20779;55.596;37.538;2022-07-05T09:03:52;31.10;79.70
34536;DHT22;20779;55.596;37.538;2022-07-05T09:06:47;31.20;79.40
34536;DHT22;20779;55.596;37.538;2022-07-05T09:10:28;31.20;80.50
34536;DHT22;20779;55.596;37.538;2022-07-05T09:13:58;31.10;79.80
34536;DHT22;20779;55.596;37.538;2022-07-05T09:16:42;31.00;79.90
34536;DHT22;20779;55.596;37.538;2022-07-05T09:19:20;31.30;80.20
34536;DHT22;20779;55.596;37.538;2022-07-05T09:22:17;31.40;79.20
34536;DHT22;20779;55.596;37.538;2022-07-05T09:28:17;31.40;79.80
34536;DHT22;20779;55.596;37.538;2022-07-05T09:31:36;31.30;79.60
34536;DHT22;20779;55.596;37.538;2022-07-05T09:34:22;31.20;78.80
34536;DHT22;20779;55.596;37.538;2022-07-05T09:38:15;31.20;78.70
34536;DHT22;20779;55.596;37.538;2022-07-05T09:40:49;31.40;79.30
34536;DHT22;20779;55.596;37.538;2022-07-05T09:44:13;31.30;80.60
34536;DHT22;20779;55.596;37.538;2022-07-05T09:47:07;31.20;80.50
34536;DHT22;20779;55.596;37.538;2022-07-05T09:49:59;31.10;79.90
34536;DHT22;20779;55.596;37.538;2022-07-05T09:53:10;31.30;80.30
34536;DHT22;20779;55.596;37.538;2022-07-05T09:56:05;31.20;78.80
34536;DHT22;20779;55.596;37.538;2022-07-05T09:58:42;31.30;78.10
34536;DHT22;20779;55.596;37.538;2022-07-05T10:01:43;31.60;79.10
34536;DHT22;20779;55.596;37.538;2022-07-05T10:04:13;31.60;76.90
34536;DHT22;20779;55.596;37.538;2022-07-05T10:06:44;31.60;78.10
34536;DHT22;20779;55.596;37.538;2022-07-05T10:09:18;31.60;79.40
34536;DHT22;20779;55.596;37.538;2022-07-05T10:11:57;31.70;77.50
34536;DHT22;20779;55.596;37.538;2022-07-05T10:14:44;31.60;75.80
34536;DHT22;20779;55.596;37.538;2022-07-05T10:17:25;31.50;76.30
34536;DHT22;20779;55.596;37.538;2022-07-05T10:20:33;31.60;77.80
34536;DHT22;20779;55.596;37.538;2022-07-05T10:23:18;31.30;75.60
34536;DHT22;20779;55.596;37.538;2022-07-05T10:25:48;31.50;74.90
34536;DHT22;20779;55.596;37.538;2022-07-05T10:28:23;31.40;74.60
34536;DHT22;20779;55.596;37.538;2022-07-05T10:31:22;31.70;75.20
34536;DHT22;20779;55.596;37.538;2022-07-05T10:34:24;31.80;73.50
34536;DHT22;20779;55.596;37.538;2022-07-05T10:36:56;31.70;73.00
34536;DHT22;20779;55.596;37.538;2022-07-05T10:39:35;32.00;72.80
34536;DHT22;20779;55.596;37.538;2022-07-05T10:42:13;31.90;71.10
34536;DHT22;20779;55.596;37.538;2022-07-05T10:44:51;31.80;70.60
34536;DHT22;20779;55.596;37.538;2022-07-05T10:47:43;31.50;70.70
34536;DHT22;20779;55.596;37.538;2022-07-05T10:50:55;31.30;70.60
34536;DHT22;20779;55.596;37.538;2022-07-05T10:56:28;32.10;70.60
34536;DHT22;20779;55.596;37.538;2022-07-05T10:59:10;31.80;70.00
34536;DHT22;20779;55.596;37.538;2022-07-05T11:01:46;32.10;68.90
34536;DHT22;20779;55.596;37.538;2022-07-05T11:04:25;32.40;68.70
34536;DHT22;20779;55.596;37.538;2022-07-05T11:07:14;32.60;68.40
34536;DHT22;20779;55.596;37.538;2022-07-05T11:09:59;32.20;67.60
34536;DHT22;20779;55.596;37.538;2022-07-05T11:12:35;32.40;68.20
34536;DHT22;20779;55.596;37.538;2022-07-05T11:15:06;32.10;68.80
34536;DHT22;20779;55.596;37.538;2022-07-05T11:17:36;32.10;70.10
34536;DHT22;20779;55.596;37.538;2022-07-05T11:20:25;32.00;68.40
34536;DHT22;20779;55.596;37.538;2022-07-05T11:23:11;32.00;68.30
34536;DHT22;20779;55.596;37.538;2022-07-05T11:25:44;32.00;69.10
34536;DHT22;20779;55.596;37.538;2022-07-05T11:28:16;31.90;67.10
34536;DHT22;20779;55.596;37.538;2022-07-05T11:30:56;31.90;67.70
34536;DHT22;20779;55.596;37.538;2022-07-05T11:33:34;31.80;68.60
34536;DHT22;20779;55.596;37.538;2022-07-05T11:36:00;31.70;69.40
34536;DHT22;20779;55.596;37.538;2022-07-05T11:38:27;31.60;69.90
34536;DHT22;20779;55.596;37.538;2022-07-05T11:40:56;31.60;69.70
34536;DHT22;20779;55.596;37.538;2022-07-05T11:43:36;31.60;69.70
34536;DHT22;20779;55.596;37.538;2022-07-05T11:46:02;31.70;68.60
34536;DHT22;20779;55.596;37.538;2022-07-05T11:48:29;31.70;68.80
34536;DHT22;20779;55.596;37.538;2022-07-05T11:50:56;31.60;69.10
34536;DHT22;20779;55.596;37.538;2022-07-05T11:53:27;31.60;66.80
34536;DHT22;20779;55.596;37.538;2022-07-05T11:55:58;31.70;66.50
34536;DHT22;20779;55.596;37.538;2022-07-05T11:58:34;31.80;66.30
34536;DHT22;20779;55.596;37.538;2022-07-05T12:01:00;31.20;75.20
34536;DHT22;20779;55.596;37.538;2022-07-05T12:03:27;30.50;78.60
34536;DHT22;20779;55.596;37.538;2022-07-05T12:05:54;29.80;81.20
34536;DHT22;20779;55.596;37.538;2022-07-05T12:08:25;29.20;84.60
34536;DHT22;20779;55.596;37.538;2022-07-05T12:10:51;29.00;87.40
34536;DHT22;20779;55.596;37.538;2022-07-05T12:13:56;28.70;88.80
34536;DHT22;20779;55.596;37.538;2022-07-05T12:16:22;28.20;91.00
34536;DHT22;20779;55.596;37.538;2022-07-05T12:18:55;27.90;91.60
34536;DHT22;20779;55.596;37.538;2022-07-05T12:21:22;27.90;92.10
34536;DHT22;20779;55.596;37.538;2022-07-05T12:23:49;27.90;92.20
34536;DHT22;20779;55.596;37.538;2022-07-05T12:26:17;27.80;92.40
34536;DHT22;20779;55.596;37.538;2022-07-05T12:28:46;27.70;93.10
34536;DHT22;20779;55.596;37.538;2022-07-05T12:31:20;27.70;94.30
34536;DHT22;20779;55.596;37.538;2022-07-05T12:33:48;27.60;94.30
34536;DHT22;20779;55.596;37.538;2022-07-05T12:36:18;27.40;95.40
34536;DHT22;20779;55.596;37.538;2022-07-05T12:38:46;27.30;95.90
34536;DHT22;20779;55.596;37.538;2022-07-05T12:41:23;27.30;96.70
34536;DHT22;20779;55.596;37.538;2022-07-05T12:43:54;27.40;96.70
34536;DHT22;20779;55.596;37.538;2022-07-05T12:46:21;27.40;96.50
34536;DHT22;20779;55.596;37.538;2022-07-05T12:49:02;27.50;96.80
34536;DHT22;20779;55.596;37.538;2022-07-05T12:51:37;27.30;97.30
34536;DHT22;20779;55.596;37.538;2022-07-05T12:54:21;26.90;99.00
34536;DHT22;20779;55.596;37.538;2022-07-05T12:57:07;26.50;99.90
34536;DHT22;20779;55.596;37.538;2022-07-05T13:00:06;26.30;99.90
34536;DHT22;20779;55.596;37.538;2022-07-05T13:02:38;26.10;99.90
34536;DHT22;20779;55.596;37.538;2022-07-05T17:22:24;19.70;99.90
34536;DHT22;20779;55.596;37.538;2022-07-05T17:24:51;19.70;99.90
34536;DHT22;20779;55.596;37.538;2022-07-05T17:27:17;19.80;99.90
34536;DHT22;20779;55.596;37.538;2022-07-05T17:29:43;19.80;99.90
34536;DHT22;20779;55.596;37.538;2022-07-05T17:32:09;19.80;99.90
34536;DHT22;20779;55.596;37.538;2022-07-05T17:34:35;19.80;99.90
34536;DHT22;20779;55.596;37.538;2022-07-05T17:37:01;19.90;99.90
34536;DHT22;20779;55.596;37.538;2022-07-05T17:39:28;19.90;99.90
34536;DHT22;20779;55.596;37.538;2022-07-05T17:41:54;20.00;99.90
34536;DHT22;20779;55.596;37.538;2022-07-05T17:44:21;20.00;99.90
34536;DHT22;20779;55.596;37.538;2022-07-05T17:46:47;19.90;99.90
34536;DHT22;20779;55.596;37.538;2022-07-05T17:49:13;19.80;99.90
34536;DHT22;20779;55.596;37.538;2022-07-05T17:51:39;19.70;99.90
34536;DHT22;20779;55.596;37.538;2022-07-05T17:54:05;19.70;99.90
34536;DHT22;20779;55.596;37.538;2022-07-05T17:56:31;19.60;99.90
34536;DHT22;20779;55.596;37.538;2022-07-05T17:58:57;19.70;99.90
34536;DHT22;20779;55.596;37.538;2022-07-05T18:01:24;19.70;99.90
34536;DHT22;20779;55.596;37.538;2022-07-05T18:03:50;19.70;99.90
34536;DHT22;20779;55.596;37.538;2022-07-05T18:06:16;19.70;99.90
34536;DHT22;20779;55.596;37.538;2022-07-05T18:08:43;19.80;99.90
34536;DHT22;20779;55.596;37.538;2022-07-05T18:11:09;19.70;99.90
34536;DHT22;20779;55.596;37.538;2022-07-05T18:13:37;19.70;99.90
34536;DHT22;20779;55.596;37.538;2022-07-05T18:16:03;19.70;99.90
34536;DHT22;20779;55.596;37.538;2022-07-05T18:18:29;19.70;99.90
34536;DHT22;20779;55.596;37.538;2022-07-05T18:20:57;19.70;99.90
34536;DHT22;20779;55.596;37.538;2022-07-05T18:23:23;19.70;99.90
34536;DHT22;20779;55.596;37.538;2022-07-05T18:25:49;19.70;99.90
34536;DHT22;20779;55.596;37.538;2022-07-05T18:28:16;19.60;99.90
34536;DHT22;20779;55.596;37.538;2022-07-05T18:30:42;19.60;99.90
34536;DHT22;20779;55.596;37.538;2022-07-05T18:33:08;19.60;99.90
34536;DHT22;20779;55.596;37.538;2022-07-05T18:35:35;19.60;99.90
34536;DHT22;20779;55.596;37.538;2022-07-05T18:38:02;19.60;99.90
34536;DHT22;20779;55.596;37.538;2022-07-05T18:40:29;19.60;99.90
34536;DHT22;20779;55.596;37.538;2022-07-05T18:42:55;19.60;99.90
34536;DHT22;20779;55.596;37.538;2022-07-05T18:45:21;19.60;99.90
34536;DHT22;20779;55.596;37.538;2022-07-05T18:47:48;19.70;99.90
34536;DHT22;20779;55.596;37.538;2022-07-05T18:50:15;19.80;99.90
34536;DHT22;20779;55.596;37.538;2022-07-05T18:52:42;19.80;99.90
34536;DHT22;20779;55.596;37.538;2022-07-05T18:55:08;19.80;99.90
34536;DHT22;20779;55.596;37.538;2022-07-05T18:57:37;19.70;99.90
34536;DHT22;20779;55.596;37.538;2022-07-05T19:00:04;19.60;99.90
34536;DHT22;20779;55.596;37.538;2022-07-05T19:02:31;19.50;99.90
34536;DHT22;20779;55.596;37.538;2022-07-05T19:04:57;19.50;99.90
34536;DHT22;20779;55.596;37.538;2022-07-05T19:07:24;19.50;99.90
34536;DHT22;20779;55.596;37.538;2022-07-05T19:10:08;19.40;99.90
34536;DHT22;20779;55.596;37.538;2022-07-05T19:12:53;19.40;99.90
34536;DHT22;20779;55.596;37.538;2022-07-05T19:15:38;19.30;99.90
34536;DHT22;20779;55.596;37.538;2022-07-05T19:18:04;19.30;99.90
34536;DHT22;20779;55.596;37.538;2022-07-05T19:20:30;19.20;99.90
34536;DHT22;20779;55.596;37.538;2022-07-05T19:22:56;19.30;99.90
34536;DHT22;20779;55.596;37.538;2022-07-05T19:25:22;19.20;99.90
34536;DHT22;20779;55.596;37.538;2022-07-05T19:27:49;19.20;99.90
34536;DHT22;20779;55.596;37.538;2022-07-05T19:30:15;19.20;99.90
34536;DHT22;20779;55.596;37.538;2022-07-05T19:32:41;19.10;99.90
34536;DHT22;20779;55.596;37.538;2022-07-05T19:35:08;19.00;99.90
34536;DHT22;20779;55.596;37.538;2022-07-05T19:37:41;18.90;99.90
34536;DHT22;20779;55.596;37.538;2022-07-05T19:40:07;18.90;99.90
34536;DHT22;20779;55.596;37.538;2022-07-05T19:42:34;18.90;99.90
34536;DHT22;20779;55.596;37.538;2022-07-05T19:45:01;18.80;99.90
34536;DHT22;20779;55.596;37.538;2022-07-05T19:47:29;18.80;99.90
34536;DHT22;20779;55.596;37.538;2022-07-05T19:49:59;18.90;99.90
34536;DHT22;20779;55.596;37.538;2022-07-05T19:52:26;18.80;99.90
34536;DHT22;20779;55.596;37.538;2022-07-05T19:54:57;18.80;99.90
34536;DHT22;20779;55.596;37.538;2022-07-05T19:57:24;18.80;99.90
34536;DHT22;20779;55.596;37.538;2022-07-05T19:59:50;18.80;99.90
34536;DHT22;20779;55.596;37.538;2022-07-05T20:02:18;18.80;99.90
34536;DHT22;20779;55.596;37.538;2022-07-05T20:04:46;18.80;99.90
34536;DHT22;20779;55.596;37.538;2022-07-05T20:07:12;18.80;99.90